LHA2MK KMFR-KRNT
Flight info
| Callsign | LHA2MK |
|---|---|
| Flight time | 0h 55m |
| Altitude | 17000 |
| Route | OED V595 CUTTR/N0435F390 RENAA/N0438F400 BTG |
| Aircraft | B737/M-SDE1E2FGIRWYZ/S |
Departure
| Time | 2026-05-01 14:18 |
|---|---|
| Airport | Rogue Valley International-Medford Airport (KMFR) |
Arrival
| Time | 2026-05-01 15:13 |
|---|---|
| Airport | Renton Municipal Airport (KRNT) |
| Time | Latitude | Longitude | Altitude | Speed | Heading |
|---|---|---|---|---|---|
| 2026-05-01 13:45 | 42.36967 | -122.87371 | 1324 ft | 0 kts | 246° |
| 2026-05-01 14:11 | 42.36971 | -122.87361 | 1324 ft | 2 kts | 246° |
| 2026-05-01 14:11 | 42.36982 | -122.87326 | 1327 ft | 2 kts | 246° |
| 2026-05-01 14:11 | 42.36988 | -122.87308 | 1330 ft | 2 kts | 246° |
| 2026-05-01 14:12 | 42.36994 | -122.87291 | 1326 ft | 2 kts | 244° |
| 2026-05-01 14:12 | 42.37000 | -122.87274 | 1326 ft | 2 kts | 243° |
| 2026-05-01 14:12 | 42.37008 | -122.87258 | 1324 ft | 2 kts | 214° |
| 2026-05-01 14:12 | 42.37019 | -122.87247 | 1327 ft | 2 kts | 203° |
| 2026-05-01 14:13 | 42.37033 | -122.87242 | 1326 ft | 2 kts | 172° |
| 2026-05-01 14:13 | 42.37038 | -122.87243 | 1327 ft | 0 kts | 161° |
| 2026-05-01 14:14 | 42.37027 | -122.87238 | 1328 ft | 3 kts | 162° |
| 2026-05-01 14:14 | 42.36987 | -122.87221 | 1324 ft | 9 kts | 161° |
| 2026-05-01 14:14 | 42.36917 | -122.87185 | 1325 ft | 12 kts | 160° |
| 2026-05-01 14:15 | 42.36832 | -122.87139 | 1325 ft | 14 kts | 157° |
| 2026-05-01 14:15 | 42.36743 | -122.87091 | 1324 ft | 13 kts | 159° |
| 2026-05-01 14:15 | 42.36657 | -122.87048 | 1324 ft | 13 kts | 160° |
| 2026-05-01 14:15 | 42.36573 | -122.87006 | 1324 ft | 13 kts | 159° |
| 2026-05-01 14:16 | 42.36493 | -122.86962 | 1329 ft | 12 kts | 158° |
| 2026-05-01 14:16 | 42.36416 | -122.86922 | 1332 ft | 10 kts | 159° |
| 2026-05-01 14:16 | 42.36358 | -122.86879 | 1335 ft | 10 kts | 122° |
| 2026-05-01 14:16 | 42.36367 | -122.86794 | 1336 ft | 9 kts | 66° |
| 2026-05-01 14:17 | 42.36423 | -122.86769 | 1341 ft | 9 kts | 344° |
| 2026-05-01 14:17 | 42.36537 | -122.86827 | 1333 ft | 46 kts | 338° |
| 2026-05-01 14:17 | 42.37092 | -122.87120 | 1328 ft | 122 kts | 339° |
| 2026-05-01 14:17 | 42.38039 | -122.87618 | 1569 ft | 157 kts | 339° |
| 2026-05-01 14:18 | 42.39151 | -122.88209 | 2027 ft | 188 kts | 337° |
| 2026-05-01 14:18 | 42.40426 | -122.88929 | 2598 ft | 206 kts | 339° |
| 2026-05-01 14:18 | 42.41811 | -122.89400 | 3399 ft | 212 kts | 348° |
| 2026-05-01 14:18 | 42.42819 | -122.89698 | 3595 ft | 235 kts | 348° |
| 2026-05-01 14:19 | 42.45107 | -122.90399 | 4235 ft | 267 kts | 348° |
| 2026-05-01 14:19 | 42.46964 | -122.90905 | 5050 ft | 277 kts | 358° |
| 2026-05-01 14:19 | 42.48858 | -122.90465 | 5939 ft | 279 kts | 24° |
| 2026-05-01 14:19 | 42.50576 | -122.89208 | 6863 ft | 284 kts | 34° |
| 2026-05-01 14:20 | 42.52241 | -122.87732 | 7833 ft | 288 kts | 36° |
| 2026-05-01 14:20 | 42.55631 | -122.84658 | 9907 ft | 299 kts | 35° |
| 2026-05-01 14:20 | 42.57394 | -122.83077 | 10696 ft | 313 kts | 34° |
| 2026-05-01 14:21 | 42.59285 | -122.81394 | 11203 ft | 334 kts | 34° |
| 2026-05-01 14:21 | 42.61254 | -122.79651 | 12082 ft | 341 kts | 34° |
| 2026-05-01 14:21 | 42.63251 | -122.77890 | 13107 ft | 345 kts | 33° |
| 2026-05-01 14:22 | 42.67341 | -122.74279 | 14993 ft | 355 kts | 33° |
| 2026-05-01 14:22 | 42.69509 | -122.72649 | 16000 ft | 358 kts | 23° |
| 2026-05-01 14:22 | 42.71866 | -122.71518 | 16978 ft | 361 kts | 17° |
| 2026-05-01 14:22 | 42.74287 | -122.70513 | 17931 ft | 366 kts | 15° |
| 2026-05-01 14:23 | 42.76746 | -122.69524 | 18803 ft | 371 kts | 15° |
| 2026-05-01 14:23 | 42.79241 | -122.68520 | 19638 ft | 376 kts | 15° |
| 2026-05-01 14:23 | 42.81756 | -122.67496 | 20459 ft | 380 kts | 15° |
| 2026-05-01 14:23 | 42.84305 | -122.66447 | 21288 ft | 385 kts | 15° |
| 2026-05-01 14:24 | 42.86890 | -122.65374 | 22107 ft | 390 kts | 15° |
| 2026-05-01 14:24 | 42.89503 | -122.64285 | 22873 ft | 397 kts | 15° |
| 2026-05-01 14:24 | 42.92170 | -122.63169 | 23588 ft | 403 kts | 15° |
| 2026-05-01 14:24 | 42.94850 | -122.62042 | 24339 ft | 404 kts | 15° |
| 2026-05-01 14:25 | 42.97515 | -122.60919 | 25024 ft | 407 kts | 15° |
| 2026-05-01 14:25 | 43.00272 | -122.59758 | 25673 ft | 412 kts | 15° |
| 2026-05-01 14:25 | 43.03025 | -122.58596 | 26289 ft | 417 kts | 15° |
| 2026-05-01 14:25 | 43.05811 | -122.57420 | 26914 ft | 421 kts | 15° |
| 2026-05-01 14:26 | 43.08618 | -122.56234 | 27526 ft | 425 kts | 15° |
| 2026-05-01 14:26 | 43.14321 | -122.53822 | 28685 ft | 434 kts | 15° |
| 2026-05-01 14:26 | 43.17225 | -122.52592 | 29188 ft | 439 kts | 15° |
| 2026-05-01 14:27 | 43.20150 | -122.51352 | 29867 ft | 440 kts | 15° |
| 2026-05-01 14:27 | 43.23044 | -122.50127 | 30387 ft | 443 kts | 15° |
| 2026-05-01 14:27 | 43.26040 | -122.48854 | 30807 ft | 447 kts | 14° |
| 2026-05-01 14:28 | 43.31992 | -122.46315 | 31614 ft | 454 kts | 14° |
| 2026-05-01 14:28 | 43.35023 | -122.45023 | 32007 ft | 457 kts | 14° |
| 2026-05-01 14:28 | 43.38071 | -122.43722 | 32382 ft | 461 kts | 14° |
| 2026-05-01 14:28 | 43.41151 | -122.42412 | 32688 ft | 465 kts | 13° |
| 2026-05-01 14:29 | 43.44298 | -122.41472 | 33191 ft | 460 kts | 4° |
| 2026-05-01 14:29 | 43.47448 | -122.41186 | 33904 ft | 449 kts | 354° |
| 2026-05-01 14:30 | 43.56759 | -122.41932 | 35136 ft | 447 kts | 351° |
| 2026-05-01 14:30 | 43.59864 | -122.42217 | 35550 ft | 446 kts | 351° |
| 2026-05-01 14:30 | 43.62968 | -122.42489 | 35814 ft | 449 kts | 351° |
| 2026-05-01 14:31 | 43.69213 | -122.42995 | 36615 ft | 447 kts | 351° |
| 2026-05-01 14:31 | 43.72310 | -122.43233 | 37009 ft | 446 kts | 351° |
| 2026-05-01 14:31 | 43.75409 | -122.43468 | 37363 ft | 446 kts | 350° |
| 2026-05-01 14:31 | 43.78499 | -122.43702 | 37814 ft | 442 kts | 350° |
| 2026-05-01 14:32 | 43.81551 | -122.43931 | 38390 ft | 438 kts | 350° |
| 2026-05-01 14:32 | 43.83573 | -122.44085 | 38508 ft | 441 kts | 349° |
| 2026-05-01 14:32 | 43.87695 | -122.44404 | 38713 ft | 445 kts | 349° |
| 2026-05-01 14:32 | 43.90785 | -122.44643 | 39015 ft | 444 kts | 350° |
| 2026-05-01 14:33 | 43.93880 | -122.44880 | 39039 ft | 447 kts | 350° |
| 2026-05-01 14:33 | 44.00065 | -122.45363 | 39075 ft | 443 kts | 350° |
| 2026-05-01 14:34 | 44.06168 | -122.45829 | 39064 ft | 441 kts | 350° |
| 2026-05-01 14:34 | 44.11290 | -122.46218 | 39070 ft | 439 kts | 350° |
| 2026-05-01 14:35 | 44.17382 | -122.46684 | 39077 ft | 438 kts | 350° |
| 2026-05-01 14:35 | 44.23423 | -122.47153 | 39086 ft | 437 kts | 350° |
| 2026-05-01 14:36 | 44.29541 | -122.47630 | 39075 ft | 438 kts | 350° |
| 2026-05-01 14:36 | 44.35631 | -122.48105 | 39065 ft | 439 kts | 350° |
| 2026-05-01 14:37 | 44.41695 | -122.48577 | 39077 ft | 440 kts | 350° |
| 2026-05-01 14:37 | 44.47817 | -122.49056 | 39074 ft | 442 kts | 351° |
| 2026-05-01 14:38 | 44.53963 | -122.49536 | 39074 ft | 443 kts | 351° |
| 2026-05-01 14:38 | 44.60124 | -122.50019 | 39071 ft | 444 kts | 351° |
| 2026-05-01 14:39 | 44.66297 | -122.50503 | 39081 ft | 444 kts | 351° |
| 2026-05-01 14:39 | 44.72474 | -122.50989 | 39074 ft | 445 kts | 351° |
| 2026-05-01 14:40 | 44.78654 | -122.51476 | 39086 ft | 445 kts | 351° |
| 2026-05-01 14:40 | 44.84843 | -122.51965 | 39083 ft | 446 kts | 351° |
| 2026-05-01 14:41 | 44.91032 | -122.52455 | 39092 ft | 446 kts | 352° |
| 2026-05-01 14:41 | 44.97230 | -122.52948 | 39081 ft | 446 kts | 352° |
| 2026-05-01 14:42 | 45.03420 | -122.53440 | 39086 ft | 445 kts | 352° |
| 2026-05-01 14:42 | 45.09606 | -122.53933 | 39091 ft | 445 kts | 352° |
| 2026-05-01 14:43 | 45.15781 | -122.54427 | 39099 ft | 444 kts | 352° |
| 2026-05-01 14:43 | 45.21956 | -122.54922 | 39102 ft | 444 kts | 352° |
| 2026-05-01 14:44 | 45.28126 | -122.55417 | 39108 ft | 444 kts | 352° |
| 2026-05-01 14:44 | 45.37367 | -122.56161 | 39099 ft | 443 kts | 353° |
| 2026-05-01 14:45 | 45.46597 | -122.56906 | 39094 ft | 443 kts | 353° |
| 2026-05-01 14:46 | 45.52760 | -122.57406 | 38971 ft | 446 kts | 353° |
| 2026-05-01 14:46 | 45.58970 | -122.57910 | 38458 ft | 446 kts | 353° |
| 2026-05-01 14:46 | 45.62068 | -122.58162 | 38182 ft | 447 kts | 353° |
| 2026-05-01 14:47 | 45.65176 | -122.58415 | 37913 ft | 447 kts | 353° |
| 2026-05-01 14:47 | 45.68285 | -122.58668 | 37640 ft | 448 kts | 353° |
| 2026-05-01 14:47 | 45.71398 | -122.58922 | 37358 ft | 448 kts | 353° |
| 2026-05-01 14:48 | 45.77601 | -122.59703 | 36839 ft | 446 kts | 347° |
| 2026-05-01 14:48 | 45.80663 | -122.60451 | 36578 ft | 446 kts | 346° |
| 2026-05-01 14:48 | 45.86780 | -122.62096 | 36074 ft | 448 kts | 346° |
| 2026-05-01 14:49 | 45.92929 | -122.63687 | 35570 ft | 450 kts | 346° |
| 2026-05-01 14:49 | 45.99109 | -122.65227 | 35096 ft | 452 kts | 347° |
| 2026-05-01 14:50 | 46.04274 | -122.66509 | 34703 ft | 455 kts | 347° |
| 2026-05-01 14:50 | 46.11578 | -122.68327 | 34134 ft | 456 kts | 347° |
| 2026-05-01 14:51 | 46.14705 | -122.69113 | 33513 ft | 456 kts | 347° |
| 2026-05-01 14:51 | 46.20969 | -122.70694 | 31933 ft | 454 kts | 347° |
| 2026-05-01 14:52 | 46.27157 | -122.72256 | 30523 ft | 449 kts | 347° |
| 2026-05-01 14:52 | 46.30223 | -122.73031 | 29773 ft | 446 kts | 347° |
| 2026-05-01 14:52 | 46.36284 | -122.74566 | 28259 ft | 438 kts | 347° |
| 2026-05-01 14:53 | 46.39274 | -122.75324 | 27528 ft | 434 kts | 347° |
| 2026-05-01 14:53 | 46.42236 | -122.76076 | 26802 ft | 431 kts | 347° |
| 2026-05-01 14:53 | 46.45178 | -122.76825 | 26074 ft | 428 kts | 347° |
| 2026-05-01 14:53 | 46.48107 | -122.77571 | 25357 ft | 426 kts | 348° |
| 2026-05-01 14:54 | 46.51013 | -122.78312 | 24642 ft | 424 kts | 348° |
| 2026-05-01 14:54 | 46.53908 | -122.79050 | 23914 ft | 422 kts | 348° |
| 2026-05-01 14:54 | 46.56796 | -122.79786 | 23110 ft | 420 kts | 348° |
| 2026-05-01 14:54 | 46.59663 | -122.80520 | 22329 ft | 417 kts | 348° |
| 2026-05-01 14:55 | 46.62500 | -122.81246 | 21611 ft | 412 kts | 348° |
| 2026-05-01 14:55 | 46.65310 | -122.81966 | 20890 ft | 408 kts | 348° |
| 2026-05-01 14:55 | 46.68102 | -122.82682 | 20173 ft | 405 kts | 348° |
| 2026-05-01 14:55 | 46.70859 | -122.83390 | 19468 ft | 402 kts | 348° |
| 2026-05-01 14:56 | 46.73602 | -122.84095 | 18765 ft | 398 kts | 348° |
| 2026-05-01 14:56 | 46.76326 | -122.84796 | 18004 ft | 396 kts | 348° |
| 2026-05-01 14:56 | 46.79027 | -122.85492 | 17223 ft | 393 kts | 348° |
| 2026-05-01 14:56 | 46.81708 | -122.86183 | 16475 ft | 390 kts | 348° |
| 2026-05-01 14:57 | 46.84339 | -122.86861 | 15711 ft | 378 kts | 348° |
| 2026-05-01 14:57 | 46.89345 | -122.88154 | 14358 ft | 355 kts | 348° |
| 2026-05-01 14:57 | 46.91747 | -122.88775 | 13684 ft | 346 kts | 348° |
| 2026-05-01 14:58 | 46.94079 | -122.89379 | 13171 ft | 332 kts | 348° |
| 2026-05-01 14:58 | 46.96301 | -122.89523 | 13019 ft | 313 kts | 8° |
| 2026-05-01 14:58 | 46.98337 | -122.88583 | 12789 ft | 308 kts | 31° |
| 2026-05-01 14:58 | 47.00041 | -122.86653 | 12567 ft | 314 kts | 41° |
| 2026-05-01 14:59 | 47.01694 | -122.84512 | 12259 ft | 319 kts | 42° |
| 2026-05-01 14:59 | 47.03355 | -122.82352 | 11970 ft | 319 kts | 42° |
| 2026-05-01 14:59 | 47.05011 | -122.80216 | 11656 ft | 316 kts | 42° |
| 2026-05-01 14:59 | 47.06656 | -122.78105 | 11374 ft | 314 kts | 41° |
| 2026-05-01 15:00 | 47.09922 | -122.73931 | 10816 ft | 309 kts | 41° |
| 2026-05-01 15:00 | 47.11532 | -122.71873 | 10557 ft | 306 kts | 41° |
| 2026-05-01 15:00 | 47.13131 | -122.69825 | 10292 ft | 304 kts | 41° |
| 2026-05-01 15:01 | 47.14715 | -122.67797 | 10028 ft | 299 kts | 41° |
| 2026-05-01 15:01 | 47.16265 | -122.65811 | 9745 ft | 292 kts | 41° |
| 2026-05-01 15:01 | 47.17778 | -122.63869 | 9469 ft | 286 kts | 41° |
| 2026-05-01 15:01 | 47.19266 | -122.61957 | 9238 ft | 283 kts | 41° |
| 2026-05-01 15:02 | 47.20646 | -122.59903 | 8980 ft | 283 kts | 58° |
| 2026-05-01 15:02 | 47.20967 | -122.59046 | 8891 ft | 283 kts | 68° |
| 2026-05-01 15:02 | 47.21087 | -122.54408 | 8504 ft | 275 kts | 110° |
| 2026-05-01 15:02 | 47.20348 | -122.51831 | 8255 ft | 272 kts | 117° |
| 2026-05-01 15:03 | 47.19526 | -122.49323 | 8004 ft | 272 kts | 118° |
| 2026-05-01 15:03 | 47.18695 | -122.46822 | 7749 ft | 272 kts | 118° |
| 2026-05-01 15:03 | 47.17858 | -122.44284 | 7495 ft | 272 kts | 117° |
| 2026-05-01 15:03 | 47.17041 | -122.41781 | 7268 ft | 271 kts | 117° |
| 2026-05-01 15:04 | 47.16244 | -122.39323 | 7032 ft | 269 kts | 117° |
| 2026-05-01 15:04 | 47.15444 | -122.36845 | 6790 ft | 268 kts | 117° |
| 2026-05-01 15:04 | 47.14638 | -122.34347 | 6558 ft | 266 kts | 117° |
| 2026-05-01 15:04 | 47.13846 | -122.31892 | 6317 ft | 265 kts | 117° |
| 2026-05-01 15:05 | 47.13072 | -122.29452 | 6074 ft | 263 kts | 112° |
| 2026-05-01 15:05 | 47.12833 | -122.26844 | 5821 ft | 264 kts | 83° |
| 2026-05-01 15:05 | 47.13502 | -122.24357 | 5600 ft | 264 kts | 54° |
| 2026-05-01 15:05 | 47.14909 | -122.22611 | 5374 ft | 264 kts | 26° |
| 2026-05-01 15:06 | 47.16601 | -122.21692 | 5163 ft | 262 kts | 17° |
| 2026-05-01 15:06 | 47.18349 | -122.20927 | 4918 ft | 263 kts | 16° |
| 2026-05-01 15:06 | 47.20126 | -122.20168 | 4672 ft | 263 kts | 16° |
| 2026-05-01 15:06 | 47.21880 | -122.19414 | 4429 ft | 262 kts | 17° |
| 2026-05-01 15:07 | 47.23599 | -122.18664 | 4204 ft | 260 kts | 17° |
| 2026-05-01 15:07 | 47.25326 | -122.17902 | 3982 ft | 259 kts | 18° |
| 2026-05-01 15:07 | 47.27037 | -122.17134 | 3752 ft | 253 kts | 18° |
| 2026-05-01 15:07 | 47.28698 | -122.16395 | 3514 ft | 244 kts | 17° |
| 2026-05-01 15:08 | 47.30283 | -122.15686 | 3305 ft | 233 kts | 18° |
| 2026-05-01 15:08 | 47.31798 | -122.15006 | 3107 ft | 223 kts | 18° |
| 2026-05-01 15:08 | 47.33270 | -122.14346 | 2918 ft | 214 kts | 18° |
| 2026-05-01 15:08 | 47.34713 | -122.14115 | 2693 ft | 208 kts | 346° |
| 2026-05-01 15:09 | 47.35980 | -122.14966 | 2567 ft | 196 kts | 330° |
| 2026-05-01 15:09 | 47.37131 | -122.15963 | 2406 ft | 187 kts | 330° |
| 2026-05-01 15:09 | 47.38231 | -122.16920 | 2243 ft | 179 kts | 330° |
| 2026-05-01 15:09 | 47.39265 | -122.17819 | 2071 ft | 165 kts | 330° |
| 2026-05-01 15:10 | 47.40209 | -122.18640 | 1917 ft | 150 kts | 330° |
| 2026-05-01 15:10 | 47.41899 | -122.20105 | 1690 ft | 131 kts | 332° |
| 2026-05-01 15:10 | 47.42710 | -122.20455 | 1624 ft | 118 kts | 354° |
| 2026-05-01 15:11 | 47.43544 | -122.20713 | 1352 ft | 122 kts | 347° |
| 2026-05-01 15:11 | 47.45161 | -122.20973 | 897 ft | 115 kts | 357° |
| 2026-05-01 15:11 | 47.45961 | -122.21041 | 698 ft | 115 kts | 354° |
| 2026-05-01 15:12 | 47.46753 | -122.21186 | 532 ft | 114 kts | 353° |
| 2026-05-01 15:12 | 47.48342 | -122.21428 | 181 ft | 114 kts | 354° |
| 2026-05-01 15:12 | 47.49132 | -122.21550 | 35 ft | 108 kts | 354° |
| 2026-05-01 15:13 | 47.49855 | -122.21745 | 22 ft | 6 kts | 244° |
| 2026-05-01 15:14 | 47.49773 | -122.21769 | 25 ft | 6 kts | 176° |
| 2026-05-01 15:14 | 47.49731 | -122.21761 | 24 ft | 6 kts | 173° |
| 2026-05-01 15:14 | 47.49645 | -122.21746 | 26 ft | 10 kts | 174° |
| 2026-05-01 15:15 | 47.49560 | -122.21818 | 24 ft | 7 kts | 271° |
| 2026-05-01 15:15 | 47.49561 | -122.21839 | 25 ft | 0 kts | 272° |